createdAt,value
2023-03-18T00:00:58.756Z,745.00
2023-03-18T00:01:58.849Z,746.00
2023-03-18T00:02:58.884Z,746.00
2023-03-18T00:03:59.016Z,747.00
2023-03-18T00:04:58.961Z,747.00
2023-03-18T00:05:59.031Z,748.00
2023-03-18T00:06:59.101Z,749.00
2023-03-18T00:07:59.081Z,749.00
2023-03-18T00:08:59.076Z,748.00
2023-03-18T00:09:59.117Z,750.00
2023-03-18T00:10:59.182Z,749.00
2023-03-18T00:11:59.236Z,745.00
2023-03-18T00:12:59.249Z,748.00
2023-03-18T00:13:59.359Z,749.00
2023-03-18T00:14:59.341Z,747.00
2023-03-18T00:15:59.345Z,747.00
2023-03-18T00:16:59.391Z,746.00
2023-03-18T00:17:59.573Z,746.00
2023-03-18T00:18:59.441Z,748.00
2023-03-18T00:19:59.522Z,750.00
2023-03-18T00:20:59.642Z,752.00
2023-03-18T00:21:59.585Z,753.00
2023-03-18T00:22:59.607Z,757.00
2023-03-18T00:23:59.619Z,758.00
2023-03-18T00:24:59.643Z,760.00
2023-03-18T00:25:59.696Z,761.00
2023-03-18T00:26:59.707Z,762.00
2023-03-18T00:27:59.754Z,760.00
2023-03-18T00:28:59.763Z,758.00
2023-03-18T00:29:59.773Z,759.00
2023-03-18T00:30:59.879Z,760.00
2023-03-18T00:31:59.838Z,758.00
2023-03-18T00:33:59.896Z,755.00
2023-03-18T00:34:59.918Z,757.00
2023-03-18T00:35:59.956Z,756.00
2023-03-18T00:36:59.969Z,754.00
2023-03-18T00:38:00.012Z,755.00
2023-03-18T00:39:00.013Z,757.00
2023-03-18T00:40:00.024Z,758.00
2023-03-18T00:41:00.034Z,760.00
2023-03-18T00:42:00.122Z,760.00
2023-03-18T00:43:00.115Z,758.00
2023-03-18T00:44:00.078Z,757.00
2023-03-18T00:45:00.128Z,756.00
2023-03-18T00:46:00.144Z,755.00
2023-03-18T00:47:00.189Z,753.00
2023-03-18T00:48:00.189Z,753.00
2023-03-18T00:49:00.206Z,751.00
2023-03-18T00:50:00.247Z,752.00
2023-03-18T00:51:00.270Z,751.00
2023-03-18T00:52:00.302Z,753.00
2023-03-18T00:53:00.330Z,753.00
2023-03-18T00:54:00.402Z,752.00
2023-03-18T00:55:00.406Z,753.00
2023-03-18T00:56:00.416Z,752.00
2023-03-18T00:57:00.428Z,751.00
2023-03-18T00:58:00.463Z,749.00
2023-03-18T00:59:00.537Z,749.00
2023-03-18T01:00:00.484Z,750.00
2023-03-18T01:01:00.576Z,748.00
2023-03-18T01:02:00.630Z,748.00
2023-03-18T01:03:00.599Z,752.00
2023-03-18T01:04:00.592Z,751.00
2023-03-18T01:05:00.652Z,754.00
2023-03-18T01:06:00.651Z,754.00
2023-03-18T01:07:00.687Z,754.00
2023-03-18T01:08:00.731Z,753.00
2023-03-18T01:10:00.854Z,755.00
2023-03-18T01:11:00.900Z,754.00
2023-03-18T01:12:00.948Z,755.00
2023-03-18T01:13:00.970Z,756.00
2023-03-18T01:14:01.023Z,755.00
2023-03-18T01:15:01.110Z,754.00
2023-03-18T01:16:01.170Z,753.00
2023-03-18T01:17:01.189Z,752.00
2023-03-18T01:18:01.234Z,752.00
2023-03-18T01:19:01.248Z,752.00
2023-03-18T01:20:01.291Z,751.00
2023-03-18T01:21:01.310Z,751.00
2023-03-18T01:22:01.308Z,748.00
2023-03-18T01:23:01.318Z,748.00
2023-03-18T01:24:01.330Z,751.00
2023-03-18T01:25:01.366Z,751.00
2023-03-18T01:26:01.391Z,753.00
2023-03-18T01:27:01.420Z,751.00
2023-03-18T01:28:01.432Z,749.00
2023-03-18T01:29:01.485Z,748.00
2023-03-18T01:30:01.516Z,747.00
2023-03-18T01:31:01.578Z,747.00
2023-03-18T01:32:01.606Z,748.00
2023-03-18T01:33:01.686Z,746.00
2023-03-18T01:34:01.697Z,746.00
2023-03-18T01:35:01.737Z,748.00
2023-03-18T01:36:01.845Z,748.00
2023-03-18T01:37:01.876Z,748.00
2023-03-18T01:38:01.882Z,750.00
2023-03-18T01:39:01.911Z,751.00
2023-03-18T01:40:01.916Z,754.00
2023-03-18T01:41:01.956Z,752.00
2023-03-18T01:42:02.014Z,753.00
2023-03-18T01:43:02.056Z,756.00
2023-03-18T01:44:02.080Z,754.00
2023-03-18T01:45:02.114Z,753.00
2023-03-18T01:46:02.174Z,751.00
2023-03-18T01:47:02.250Z,751.00
2023-03-18T01:48:02.263Z,751.00
2023-03-18T01:49:02.312Z,751.00
2023-03-18T01:50:02.383Z,752.00
2023-03-18T01:51:02.432Z,751.00
2023-03-18T01:52:02.472Z,749.00
2023-03-18T01:53:02.564Z,747.00
2023-03-18T01:54:02.592Z,749.00
2023-03-18T01:55:02.673Z,750.00
2023-03-18T01:56:02.724Z,749.00
2023-03-18T01:57:02.775Z,748.00
2023-03-18T01:58:02.800Z,745.00
2023-03-18T01:59:02.839Z,747.00
2023-03-18T02:00:02.924Z,749.00
2023-03-18T02:01:02.978Z,750.00
2023-03-18T02:02:03.011Z,748.00
2023-03-18T02:03:03.074Z,748.00
2023-03-18T02:04:03.129Z,746.00
2023-03-18T02:05:03.178Z,747.00
2023-03-18T02:06:03.232Z,748.00
2023-03-18T02:07:03.251Z,748.00
2023-03-18T02:10:03.419Z,752.00
2023-03-18T02:11:03.451Z,752.00
2023-03-18T02:12:03.492Z,749.00
2023-03-18T02:13:03.532Z,747.00
2023-03-18T03:11:05.761Z,735.00
2023-03-18T03:12:05.799Z,733.00
2023-03-18T03:13:05.818Z,732.00
2023-03-18T03:14:05.845Z,733.00
2023-03-18T03:15:05.910Z,732.00
2023-03-18T03:16:05.992Z,732.00
2023-03-18T03:17:05.949Z,733.00
2023-03-18T03:18:05.996Z,736.00
2023-03-18T03:19:06.039Z,733.00
2023-03-18T03:20:06.020Z,732.00
2023-03-18T03:21:06.046Z,730.00
2023-03-18T03:22:06.098Z,731.00
2023-03-18T03:23:06.126Z,731.00
2023-03-18T03:24:06.112Z,730.00
2023-03-18T03:25:06.163Z,729.00
2023-03-18T03:26:06.167Z,728.00
2023-03-18T03:27:06.215Z,729.00
2023-03-18T03:28:06.217Z,728.00
2023-03-18T03:29:06.207Z,730.00
2023-03-18T03:30:06.306Z,729.00
2023-03-18T03:31:06.350Z,730.00
2023-03-18T03:32:06.353Z,731.00
2023-03-18T03:33:06.431Z,730.00
2023-03-18T03:34:06.427Z,730.00
2023-03-18T03:35:06.479Z,730.00
2023-03-18T03:36:06.494Z,729.00
2023-03-18T03:37:06.519Z,729.00
2023-03-18T03:38:06.525Z,729.00
2023-03-18T03:39:06.560Z,731.00
2023-03-18T03:40:06.564Z,732.00
2023-03-18T03:41:06.574Z,733.00
2023-03-18T03:42:06.597Z,733.00
2023-03-18T03:43:06.615Z,731.00
2023-03-18T03:44:06.628Z,728.00
2023-03-18T03:45:06.640Z,729.00
2023-03-18T03:46:06.728Z,729.00
2023-03-18T03:47:06.723Z,729.00
2023-03-18T03:48:06.775Z,729.00
2023-03-18T03:49:06.778Z,729.00
2023-03-18T03:50:06.758Z,727.00
2023-03-18T03:51:06.771Z,727.00
2023-03-18T03:52:06.821Z,726.00
2023-03-18T03:53:06.856Z,722.00
2023-03-18T03:54:06.881Z,722.00
2023-03-18T03:55:06.936Z,724.00
2023-03-18T03:56:06.956Z,723.00
2023-03-18T03:57:06.954Z,723.00
2023-03-18T03:58:06.999Z,724.00
2023-03-18T03:59:07.089Z,724.00
2023-03-18T04:00:07.008Z,724.00
2023-03-18T04:01:07.048Z,724.00
2023-03-18T04:02:07.040Z,722.00
2023-03-18T04:03:07.104Z,722.00
2023-03-18T04:04:07.148Z,721.00
2023-03-18T04:05:07.150Z,722.00
2023-03-18T04:06:07.159Z,722.00
2023-03-18T04:07:07.202Z,725.00
2023-03-18T04:08:07.221Z,725.00
2023-03-18T04:09:07.234Z,726.00
2023-03-18T04:10:07.239Z,724.00
2023-03-18T04:11:07.238Z,724.00
2023-03-18T04:12:07.268Z,724.00
2023-03-18T04:13:07.352Z,724.00
2023-03-18T04:14:07.361Z,723.00
2023-03-18T04:15:07.364Z,721.00
2023-03-18T04:16:07.459Z,721.00
2023-03-18T04:17:07.383Z,720.00
2023-03-18T04:18:07.391Z,720.00
2023-03-18T04:19:07.441Z,722.00
2023-03-18T04:20:07.464Z,721.00
2023-03-18T04:21:07.525Z,722.00
2023-03-18T04:22:07.543Z,722.00
2023-03-18T04:23:07.539Z,722.00
2023-03-18T04:24:07.589Z,721.00
2023-03-18T04:25:07.582Z,716.00
2023-03-18T04:26:07.598Z,712.00
2023-03-18T04:27:07.631Z,715.00
2023-03-18T04:28:07.620Z,711.00
2023-03-18T04:29:07.694Z,712.00
2023-03-18T04:30:07.745Z,714.00
2023-03-18T04:31:07.789Z,715.00
2023-03-18T04:32:07.776Z,716.00
2023-03-18T04:33:07.862Z,720.00
2023-03-18T04:34:07.800Z,719.00
2023-03-18T04:35:07.835Z,720.00
2023-03-18T04:36:07.821Z,720.00
2023-03-18T04:37:07.812Z,721.00
2023-03-18T04:38:07.842Z,720.00
2023-03-18T04:39:07.870Z,718.00
2023-03-18T04:40:07.882Z,718.00
2023-03-18T04:41:07.856Z,718.00
2023-03-18T04:42:07.878Z,717.00
2023-03-18T04:43:07.860Z,716.00
2023-03-18T04:44:07.904Z,719.00
2023-03-18T04:45:07.871Z,718.00
2023-03-18T04:46:07.900Z,718.00
2023-03-18T04:47:07.906Z,719.00
2023-03-18T04:48:07.928Z,720.00
2023-03-18T04:49:07.923Z,719.00
2023-03-18T04:50:07.975Z,718.00
2023-03-18T04:51:07.982Z,719.00
2023-03-18T04:52:07.976Z,719.00
2023-03-18T04:53:08.009Z,719.00
2023-03-18T04:54:08.027Z,718.00
2023-03-18T04:55:08.021Z,718.00
2023-03-18T04:56:08.062Z,715.00
2023-03-18T04:57:08.110Z,714.00
2023-03-18T04:58:08.062Z,712.00
2023-03-18T04:59:08.089Z,712.00
2023-03-18T05:00:10.420Z,713.00
2023-03-18T05:01:08.180Z,713.00
2023-03-18T05:02:08.075Z,710.00
2023-03-18T05:03:08.052Z,710.00
2023-03-18T05:04:08.092Z,710.00
2023-03-18T05:05:08.070Z,711.00
2023-03-18T05:06:08.080Z,712.00
2023-03-18T05:07:08.054Z,713.00
2023-03-18T05:08:08.060Z,712.00
2023-03-18T05:09:08.045Z,710.00
2023-03-18T05:10:08.025Z,706.00
2023-03-18T05:11:08.045Z,707.00
2023-03-18T05:12:08.032Z,708.00
2023-03-18T05:13:08.035Z,708.00
2023-03-18T05:14:07.994Z,707.00
2023-03-18T05:15:08.016Z,707.00
2023-03-18T05:16:08.049Z,709.00
2023-03-18T05:17:08.010Z,711.00
2023-03-18T05:18:07.982Z,711.00
2023-03-18T05:19:07.988Z,711.00
2023-03-18T05:20:07.960Z,708.00
2023-03-18T05:21:07.954Z,707.00
2023-03-18T05:22:07.939Z,708.00
2023-03-18T05:23:07.968Z,708.00
2023-03-18T05:24:07.936Z,709.00
2023-03-18T05:25:07.932Z,708.00
2023-03-18T05:26:07.925Z,709.00
2023-03-18T05:27:08.008Z,708.00
2023-03-18T05:28:10.173Z,708.00
2023-03-18T05:29:07.884Z,708.00
2023-03-18T05:30:07.884Z,707.00
2023-03-18T05:31:07.883Z,708.00
2023-03-18T05:32:08.023Z,708.00
2023-03-18T05:33:07.980Z,706.00
2023-03-18T05:34:07.854Z,708.00
2023-03-18T05:35:07.832Z,705.00
2023-03-18T05:36:27.798Z,705.00
2023-03-18T05:37:27.823Z,697.00
2023-03-18T05:38:27.812Z,699.00
2023-03-18T05:39:27.788Z,702.00
2023-03-18T05:40:27.753Z,701.00
2023-03-18T05:41:27.780Z,702.00
2023-03-18T05:42:27.766Z,705.00
2023-03-18T05:43:27.732Z,706.00
2023-03-18T05:44:27.744Z,705.00
2023-03-18T05:45:27.759Z,702.00
2023-03-18T05:46:27.808Z,699.00
2023-03-18T05:47:27.734Z,701.00
2023-03-18T05:48:27.753Z,701.00
2023-03-18T05:49:27.736Z,702.00
2023-03-18T05:50:27.726Z,705.00
2023-03-18T05:51:27.706Z,706.00
2023-03-18T05:52:27.701Z,705.00
2023-03-18T05:53:27.724Z,705.00
2023-03-18T05:54:27.673Z,705.00
2023-03-18T05:55:27.698Z,704.00
2023-03-18T05:56:27.681Z,701.00
2023-03-18T05:57:27.662Z,702.00
2023-03-18T05:58:27.667Z,705.00
2023-03-18T05:59:27.638Z,706.00
2023-03-18T06:00:27.633Z,706.00
2023-03-18T06:01:27.667Z,704.00
2023-03-18T06:02:27.691Z,703.00
2023-03-18T06:03:27.691Z,701.00
2023-03-18T06:04:27.591Z,703.00
2023-03-18T06:05:27.637Z,705.00
2023-03-18T06:06:27.613Z,706.00
2023-03-18T06:07:27.614Z,705.00
2023-03-18T06:08:27.568Z,705.00
2023-03-18T06:09:27.668Z,701.00
2023-03-18T06:10:27.603Z,703.00
2023-03-18T06:11:27.591Z,702.00
2023-03-18T06:12:27.570Z,702.00
2023-03-18T06:13:27.564Z,701.00
2023-03-18T06:14:27.555Z,698.00
2023-03-18T06:15:27.561Z,696.00
2023-03-18T06:16:27.590Z,693.00
2023-03-18T06:17:27.587Z,695.00
2023-03-18T06:18:27.555Z,696.00
2023-03-18T06:19:27.531Z,693.00
2023-03-18T06:20:27.526Z,693.00
2023-03-18T06:21:27.533Z,691.00
2023-03-18T06:22:27.540Z,693.00
2023-03-18T06:23:27.476Z,694.00
2023-03-18T06:24:27.563Z,693.00
2023-03-18T06:25:27.550Z,692.00
2023-03-18T06:26:27.608Z,692.00
2023-03-18T06:27:27.626Z,689.00
2023-03-18T06:28:27.678Z,689.00
2023-03-18T06:29:27.714Z,691.00
2023-03-18T06:30:27.757Z,694.00
2023-03-18T06:31:27.852Z,691.00
2023-03-18T06:32:27.980Z,691.00
2023-03-18T06:33:27.875Z,690.00
2023-03-18T06:34:27.878Z,691.00
2023-03-18T06:35:27.926Z,693.00
2023-03-18T06:36:28.005Z,691.00
2023-03-18T06:37:28.014Z,693.00
2023-03-18T06:38:28.050Z,696.00
2023-03-18T06:39:28.111Z,695.00
2023-03-18T06:40:28.143Z,693.00
2023-03-18T06:41:28.177Z,692.00
2023-03-18T06:42:28.226Z,692.00
2023-03-18T06:43:28.242Z,693.00
2023-03-18T06:44:28.295Z,692.00
2023-03-18T06:45:28.377Z,692.00
2023-03-18T06:46:28.537Z,691.00
2023-03-18T06:47:28.484Z,691.00
2023-03-18T06:48:28.551Z,691.00
2023-03-18T06:49:28.577Z,691.00
2023-03-18T06:50:28.627Z,690.00
2023-03-18T06:51:28.720Z,689.00
2023-03-18T06:52:28.775Z,691.00
2023-03-18T06:54:28.865Z,691.00
2023-03-18T06:55:28.895Z,691.00
2023-03-18T06:56:28.941Z,691.00
2023-03-18T06:57:28.964Z,690.00
2023-03-18T06:58:29.026Z,688.00
2023-03-18T06:59:29.091Z,689.00
2023-03-18T07:00:29.161Z,687.00
2023-03-18T07:01:29.223Z,687.00
2023-03-18T07:02:29.293Z,686.00
2023-03-18T07:03:29.334Z,689.00
2023-03-18T07:04:29.386Z,688.00
2023-03-18T07:05:29.481Z,689.00
2023-03-18T07:06:29.500Z,690.00
2023-03-18T07:07:29.595Z,691.00
2023-03-18T07:08:29.637Z,689.00
2023-03-18T07:09:29.702Z,690.00
2023-03-18T07:10:29.790Z,688.00
2023-03-18T07:11:29.818Z,688.00
2023-03-18T07:12:29.871Z,689.00
2023-03-18T07:13:29.936Z,690.00
2023-03-18T07:14:29.988Z,691.00
2023-03-18T07:15:30.052Z,690.00
2023-03-18T07:16:30.358Z,688.00
2023-03-18T10:54:35.740Z,663.00
2023-03-18T10:55:35.760Z,663.00
2023-03-18T10:56:35.778Z,661.00
2023-03-18T10:57:35.818Z,660.00
2023-03-18T10:58:35.863Z,662.00
2023-03-18T10:59:35.873Z,665.00
2023-03-18T11:00:36.380Z,667.00
2023-03-18T11:01:35.924Z,667.00
2023-03-18T11:02:35.973Z,667.00
2023-03-18T11:03:35.965Z,671.00
2023-03-18T11:04:35.977Z,674.00
2023-03-18T11:05:35.973Z,675.00
2023-03-18T11:06:36.002Z,674.00
2023-03-18T11:07:36.055Z,673.00
2023-03-18T11:08:36.077Z,673.00
2023-03-18T11:09:36.082Z,670.00
2023-03-18T11:10:36.347Z,668.00
2023-03-18T11:11:36.115Z,669.00
2023-03-18T11:12:36.102Z,666.00
2023-03-18T11:13:36.156Z,667.00
2023-03-18T11:14:36.149Z,665.00
2023-03-18T11:15:36.146Z,661.00
2023-03-18T11:16:36.161Z,661.00
2023-03-18T11:17:36.210Z,660.00
2023-03-18T11:18:36.243Z,661.00
2023-03-18T11:19:36.221Z,661.00
2023-03-18T11:20:36.250Z,661.00
2023-03-18T11:21:36.209Z,663.00
2023-03-18T11:22:36.267Z,664.00
2023-03-18T11:23:36.247Z,663.00
2023-03-18T11:24:36.541Z,663.00
2023-03-18T11:25:36.294Z,663.00
2023-03-18T11:26:36.293Z,664.00
2023-03-18T11:27:36.302Z,665.00
2023-03-18T11:28:36.347Z,666.00
2023-03-18T11:29:36.338Z,668.00
2023-03-18T11:30:36.443Z,667.00
2023-03-18T11:31:36.428Z,663.00
2023-03-18T11:32:36.381Z,662.00
2023-03-18T11:33:36.387Z,663.00
2023-03-18T11:34:36.394Z,662.00
2023-03-18T11:35:36.414Z,660.00
2023-03-18T11:36:36.423Z,659.00
2023-03-18T11:37:36.445Z,659.00
2023-03-18T11:38:36.444Z,662.00
2023-03-18T11:39:36.448Z,662.00
2023-03-18T11:40:36.460Z,660.00
2023-03-18T11:41:36.455Z,660.00
2023-03-18T11:42:36.482Z,660.00
2023-03-18T11:43:36.474Z,660.00
2023-03-18T11:44:36.482Z,659.00
2023-03-18T11:45:36.477Z,661.00
2023-03-18T11:46:36.609Z,658.00
2023-03-18T11:47:36.492Z,656.00
2023-03-18T11:48:36.581Z,657.00
2023-03-18T11:49:36.500Z,659.00
2023-03-18T11:50:36.506Z,660.00
2023-03-18T11:51:36.493Z,662.00
2023-03-18T11:52:36.546Z,662.00
2023-03-18T11:53:36.501Z,661.00
2023-03-18T11:54:36.549Z,661.00
2023-03-18T11:55:36.514Z,656.00
2023-03-18T11:56:36.552Z,656.00
2023-03-18T11:57:36.548Z,657.00
2023-03-18T11:58:36.556Z,656.00
2023-03-18T11:59:36.587Z,655.00
2023-03-18T12:00:36.576Z,658.00
2023-03-18T12:01:36.634Z,660.00
2023-03-18T12:02:36.623Z,663.00
2023-03-18T12:03:36.592Z,662.00
2023-03-18T12:04:36.661Z,662.00
2023-03-18T12:05:36.632Z,660.00
2023-03-18T12:06:36.623Z,662.00
2023-03-18T12:07:38.264Z,661.00
2023-03-18T12:08:36.637Z,662.00
2023-03-18T12:09:36.657Z,663.00
2023-03-18T12:10:36.696Z,660.00
2023-03-18T12:11:36.701Z,659.00
2023-03-18T12:12:36.721Z,661.00
2023-03-18T12:13:37.632Z,661.00
2023-03-18T12:14:36.735Z,658.00
2023-03-18T12:15:36.823Z,657.00
2023-03-18T12:16:36.839Z,656.00
2023-03-18T12:17:36.768Z,656.00
2023-03-18T12:18:36.792Z,658.00
2023-03-18T12:19:36.798Z,659.00
2023-03-18T12:20:36.799Z,659.00
2023-03-18T12:21:36.825Z,657.00
2023-03-18T12:22:36.861Z,656.00
2023-03-18T12:23:36.876Z,657.00
2023-03-18T12:24:36.858Z,657.00
2023-03-18T12:25:36.898Z,654.00
2023-03-18T12:26:36.907Z,652.00
2023-03-18T12:27:36.905Z,651.00
2023-03-18T12:28:36.927Z,652.00
2023-03-18T12:29:37.001Z,650.00
2023-03-18T12:30:37.002Z,653.00
2023-03-18T12:31:37.064Z,655.00
2023-03-18T12:32:37.093Z,655.00
2023-03-18T12:33:37.086Z,655.00
2023-03-18T12:34:37.092Z,655.00
2023-03-18T16:12:41.241Z,633.00
2023-03-18T16:13:41.208Z,633.00
2023-03-18T16:14:41.225Z,635.00
2023-03-18T16:15:41.270Z,637.00
2023-03-18T16:16:41.264Z,639.00
2023-03-18T16:17:41.257Z,639.00
2023-03-18T16:18:41.272Z,638.00
2023-03-18T16:19:41.314Z,639.00
2023-03-18T16:20:41.293Z,636.00
2023-03-18T16:21:41.316Z,637.00
2023-03-18T16:22:41.329Z,635.00
2023-03-18T16:23:41.310Z,636.00
2023-03-18T16:24:41.312Z,635.00
2023-03-18T16:25:41.320Z,635.00
2023-03-18T16:26:41.305Z,634.00
2023-03-18T16:27:41.356Z,634.00
2023-03-18T16:28:43.249Z,631.00
2023-03-18T16:29:41.372Z,635.00
2023-03-18T16:30:41.386Z,636.00
2023-03-18T16:31:41.466Z,637.00
2023-03-18T16:32:41.374Z,636.00
2023-03-18T16:33:41.378Z,636.00
2023-03-18T16:34:41.370Z,635.00
2023-03-18T16:35:41.415Z,636.00
2023-03-18T16:36:41.401Z,636.00
2023-03-18T16:37:41.404Z,636.00
2023-03-18T16:38:41.419Z,634.00
2023-03-18T16:39:41.379Z,634.00
2023-03-18T16:40:41.383Z,633.00
2023-03-18T16:41:41.437Z,634.00
2023-03-18T16:42:41.398Z,631.00
2023-03-18T16:43:41.456Z,629.00
2023-03-18T16:44:41.430Z,630.00
2023-03-18T16:45:41.475Z,630.00
2023-03-18T16:46:41.452Z,629.00
2023-03-18T16:47:41.481Z,630.00
2023-03-18T16:48:41.464Z,628.00
2023-03-18T16:49:41.455Z,631.00
2023-03-18T16:50:41.473Z,633.00
2023-03-18T16:51:41.486Z,634.00
2023-03-18T16:52:41.506Z,633.00
2023-03-18T16:53:41.482Z,633.00
2023-03-18T16:54:41.520Z,635.00
2023-03-18T16:55:41.531Z,636.00
2023-03-18T16:56:41.545Z,635.00
2023-03-18T16:57:41.558Z,635.00
2023-03-18T16:58:41.547Z,635.00
2023-03-18T16:59:41.541Z,636.00
2023-03-18T17:00:41.555Z,639.00
2023-03-18T17:01:41.625Z,639.00
2023-03-18T17:02:41.580Z,640.00
2023-03-18T17:03:41.623Z,638.00
2023-03-18T17:04:41.650Z,640.00
2023-03-18T17:05:41.646Z,638.00
2023-03-18T17:06:41.641Z,638.00
2023-03-18T17:07:41.658Z,637.00
2023-03-18T17:08:41.682Z,637.00
2023-03-18T17:09:41.707Z,636.00
2023-03-18T17:10:41.712Z,635.00
2023-03-18T17:11:41.743Z,636.00
2023-03-18T17:12:41.751Z,637.00
2023-03-18T17:13:41.788Z,640.00
2023-03-18T17:14:41.806Z,637.00
2023-03-18T17:15:41.798Z,635.00
2023-03-18T17:16:41.864Z,632.00
2023-03-18T17:17:41.807Z,635.00
2023-03-18T17:18:41.885Z,635.00
2023-03-18T17:19:41.903Z,636.00
2023-03-18T17:20:41.885Z,640.00
2023-03-18T17:21:41.920Z,640.00
2023-03-18T17:22:41.947Z,640.00
2023-03-18T17:23:41.954Z,640.00
2023-03-18T17:24:41.962Z,642.00
2023-03-18T17:25:42.018Z,643.00
2023-03-18T17:26:42.024Z,643.00
2023-03-18T17:27:42.019Z,641.00
2023-03-18T17:28:42.030Z,640.00
2023-03-18T17:29:42.099Z,641.00
2023-03-18T17:30:42.086Z,640.00
2023-03-18T17:31:42.105Z,638.00
2023-03-18T17:32:42.223Z,639.00
2023-03-18T17:33:42.142Z,638.00
2023-03-18T17:34:42.196Z,639.00
2023-03-18T17:36:42.241Z,638.00
2023-03-18T17:37:42.247Z,639.00
2023-03-18T17:38:42.284Z,638.00
2023-03-18T17:39:42.313Z,639.00
2023-03-18T17:40:42.318Z,637.00
2023-03-18T17:41:42.315Z,639.00
2023-03-18T17:42:42.362Z,640.00
2023-03-18T17:43:42.399Z,641.00
2023-03-18T17:44:42.392Z,643.00
2023-03-18T17:45:42.405Z,641.00
2023-03-18T17:46:42.487Z,643.00
2023-03-18T17:47:42.460Z,642.00
2023-03-18T17:48:42.476Z,644.00
2023-03-18T17:49:42.463Z,643.00
2023-03-18T17:50:42.500Z,642.00
2023-03-18T17:51:42.497Z,643.00
2023-03-18T17:52:42.524Z,642.00
2023-03-18T17:53:42.586Z,642.00
2023-03-18T17:54:42.568Z,643.00
2023-03-18T17:55:42.605Z,644.00
2023-03-18T17:56:42.644Z,644.00
2023-03-18T17:57:42.675Z,645.00
2023-03-18T17:58:42.711Z,644.00
2023-03-18T17:59:42.722Z,645.00
2023-03-18T18:00:42.734Z,643.00
2023-03-18T18:01:42.797Z,640.00
2023-03-18T18:02:42.825Z,639.00
2023-03-18T18:03:42.816Z,641.00
2023-03-18T18:04:42.841Z,641.00
2023-03-18T18:05:42.863Z,641.00
2023-03-18T18:06:42.865Z,641.00
2023-03-18T18:07:42.888Z,639.00
2023-03-18T18:08:42.896Z,638.00
2023-03-18T18:09:42.962Z,640.00
2023-03-18T18:11:42.986Z,643.00
2023-03-18T19:32:45.913Z,625.00
2023-03-18T19:33:45.829Z,627.00
2023-03-18T19:34:45.906Z,627.00
2023-03-18T19:35:45.910Z,629.00
2023-03-18T19:36:45.953Z,625.00
2023-03-18T19:37:45.966Z,626.00
2023-03-18T19:38:46.028Z,626.00
2023-03-18T19:39:46.078Z,628.00
2023-03-18T19:40:46.107Z,629.00
2023-03-18T19:41:46.886Z,628.00
2023-03-18T19:42:46.183Z,628.00
2023-03-18T19:43:46.224Z,627.00
2023-03-18T19:44:46.307Z,626.00
2023-03-18T19:45:46.382Z,628.00
2023-03-18T19:46:46.380Z,628.00
2023-03-18T19:47:46.405Z,627.00
2023-03-18T19:48:46.435Z,626.00
2023-03-18T19:49:46.489Z,625.00
2023-03-18T19:50:46.530Z,624.00
2023-03-18T19:51:46.574Z,622.00
2023-03-18T19:52:46.591Z,620.00
2023-03-18T19:53:46.649Z,620.00
2023-03-18T19:54:46.682Z,622.00
2023-03-18T19:55:46.752Z,622.00
2023-03-18T19:56:46.778Z,623.00
2023-03-18T19:57:46.847Z,626.00
2023-03-18T19:58:46.915Z,625.00
2023-03-18T19:59:46.963Z,624.00
2023-03-18T20:00:46.986Z,624.00
2023-03-18T20:01:47.017Z,624.00
2023-03-18T20:02:47.082Z,624.00
2023-03-18T20:03:47.164Z,625.00
2023-03-18T20:04:47.161Z,625.00
2023-03-18T20:05:47.266Z,627.00
2023-03-18T20:06:47.212Z,625.00
2023-03-18T20:07:47.289Z,627.00
2023-03-18T20:08:47.338Z,628.00
2023-03-18T20:09:47.401Z,631.00
2023-03-18T20:10:47.413Z,630.00
2023-03-18T20:11:47.437Z,626.00
2023-03-18T20:12:47.485Z,627.00
2023-03-18T20:13:47.530Z,625.00
2023-03-18T20:14:47.667Z,628.00
2023-03-18T20:15:47.617Z,626.00
2023-03-18T20:16:47.744Z,629.00
2023-03-18T20:17:47.794Z,628.00
2023-03-18T20:18:47.778Z,623.00
2023-03-18T20:19:47.790Z,624.00
2023-03-18T20:20:47.875Z,625.00
2023-03-18T20:21:47.896Z,623.00
2023-03-18T20:22:48.426Z,623.00
2023-03-18T20:23:47.997Z,622.00
2023-03-18T20:24:48.034Z,623.00
2023-03-18T20:25:48.094Z,622.00
2023-03-18T20:26:48.130Z,621.00
2023-03-18T20:27:48.181Z,618.00
2023-03-18T20:28:48.218Z,621.00
2023-03-18T20:29:48.260Z,621.00
2023-03-18T20:30:48.332Z,622.00
2023-03-18T20:31:48.481Z,623.00
2023-03-18T20:32:48.473Z,624.00
2023-03-18T20:33:48.466Z,622.00
2023-03-18T20:34:48.498Z,620.00
2023-03-18T20:35:48.604Z,623.00
2023-03-18T20:36:48.611Z,624.00
2023-03-18T20:37:48.653Z,624.00
2023-03-18T20:38:48.733Z,624.00
2023-03-18T20:39:48.815Z,622.00
2023-03-18T20:40:48.826Z,623.00
2023-03-18T20:41:48.892Z,623.00
2023-03-18T20:42:48.944Z,622.00
2023-03-18T20:43:48.972Z,623.00
2023-03-18T20:44:49.037Z,622.00
2023-03-18T20:45:49.070Z,624.00
2023-03-18T20:46:49.112Z,626.00
2023-03-18T20:47:49.182Z,628.00
2023-03-18T20:48:49.225Z,626.00
2023-03-18T20:49:49.310Z,624.00
2023-03-18T20:50:49.306Z,623.00
2023-03-18T20:51:49.341Z,621.00
2023-03-18T20:52:49.379Z,620.00
2023-03-18T20:53:49.474Z,620.00
2023-03-18T20:54:49.494Z,622.00
2023-03-18T20:55:49.621Z,623.00
2023-03-18T20:56:49.593Z,622.00
2023-03-18T20:57:49.617Z,622.00
2023-03-18T20:58:49.686Z,623.00
2023-03-18T20:59:49.786Z,623.00
2023-03-18T21:00:49.813Z,624.00
2023-03-18T21:01:49.837Z,624.00
2023-03-18T21:02:49.906Z,625.00
2023-03-18T21:03:49.980Z,624.00
2023-03-18T21:04:50.000Z,627.00
2023-03-18T21:05:50.054Z,627.00
2023-03-18T21:06:50.076Z,627.00
2023-03-18T21:07:50.140Z,624.00
2023-03-18T21:08:50.204Z,623.00
2023-03-18T21:09:50.218Z,621.00
2023-03-18T21:10:50.294Z,622.00
2023-03-18T21:11:50.366Z,626.00
2023-03-18T21:12:50.416Z,625.00
2023-03-18T21:13:50.464Z,623.00
2023-03-18T21:14:51.451Z,624.00
2023-03-18T21:15:50.457Z,624.00
2023-03-18T21:16:50.465Z,622.00
2023-03-18T21:17:50.455Z,622.00
2023-03-18T21:18:50.412Z,622.00
2023-03-18T21:19:50.435Z,619.00
2023-03-18T21:20:50.396Z,620.00
2023-03-18T21:21:50.412Z,621.00
2023-03-18T21:22:50.405Z,622.00
2023-03-18T21:23:50.433Z,623.00
2023-03-18T21:24:50.445Z,626.00
2023-03-18T21:25:50.503Z,627.00
2023-03-18T21:27:03.061Z,629.00
2023-03-18T21:27:51.567Z,628.00
2023-03-18T21:28:50.532Z,627.00
2023-03-18T21:29:50.540Z,626.00
2023-03-18T21:30:50.535Z,624.00
2023-03-18T21:31:50.536Z,624.00
2023-03-18T21:32:50.674Z,625.00
2023-03-18T21:33:50.520Z,626.00
2023-03-18T21:34:50.516Z,625.00
2023-03-18T21:35:50.506Z,624.00
2023-03-18T21:36:50.482Z,625.00
2023-03-18T21:37:50.524Z,622.00
2023-03-18T21:38:50.614Z,622.00
2023-03-18T21:39:50.635Z,622.00
2023-03-18T21:40:50.708Z,620.00
2023-03-18T21:41:50.772Z,624.00
2023-03-18T21:42:50.770Z,625.00
2023-03-18T21:43:50.837Z,624.00
2023-03-18T21:44:50.883Z,623.00
2023-03-18T21:45:50.998Z,625.00
2023-03-18T21:46:50.968Z,624.00
2023-03-18T21:47:51.072Z,626.00
2023-03-18T21:48:51.105Z,624.00
2023-03-18T21:49:51.161Z,622.00
2023-03-18T21:50:51.234Z,619.00
2023-03-18T21:51:51.281Z,617.00
2023-03-18T21:52:51.322Z,617.00
2023-03-18T21:53:51.383Z,618.00
2023-03-18T21:54:51.419Z,618.00
2023-03-18T21:55:51.486Z,619.00
2023-03-18T21:56:51.531Z,621.00
2023-03-18T21:57:51.618Z,620.00
2023-03-18T21:58:51.670Z,622.00
2023-03-18T21:59:51.725Z,623.00
2023-03-18T22:00:51.781Z,620.00
2023-03-18T22:01:51.964Z,619.00
2023-03-18T22:02:51.924Z,620.00
2023-03-18T22:03:51.984Z,621.00
2023-03-18T22:04:52.004Z,622.00
2023-03-18T22:05:52.062Z,618.00
2023-03-18T22:06:52.141Z,619.00
2023-03-18T22:07:52.163Z,621.00